createdAt,value
2019-04-07T00:00:40.992Z,100665.45
2019-04-07T00:03:16.245Z,100663.35
2019-04-07T00:05:51.625Z,100669.12
2019-04-07T00:08:27.360Z,100664.94
2019-04-07T00:11:02.990Z,100666.22
2019-04-07T00:13:38.393Z,100665.72
2019-04-07T00:16:13.609Z,100673.09
2019-04-07T00:18:48.718Z,100671.48
2019-04-07T00:21:24.072Z,100669.63
2019-04-07T00:24:01.742Z,100671.16
2019-04-07T00:26:35.911Z,100665.88
2019-04-07T00:29:11.053Z,100660.30
2019-04-07T00:31:46.125Z,100660.59
2019-04-07T00:34:22.113Z,100660.51
2019-04-07T00:36:57.263Z,100661.88
2019-04-07T00:39:32.643Z,100656.09
2019-04-07T00:42:08.157Z,100662.33
2019-04-07T00:44:43.349Z,100659.67
2019-04-07T00:47:18.604Z,100661.73
2019-04-07T00:49:53.751Z,100664.15
2019-04-07T00:52:29.536Z,100665.47
2019-04-07T00:55:09.954Z,100664.30
2019-04-07T00:57:45.625Z,100660.11
2019-04-07T01:00:23.671Z,100666.65
2019-04-07T01:02:59.385Z,100658.62
2019-04-07T01:05:38.557Z,100662.42
2019-04-07T01:08:11.823Z,100660.78
2019-04-07T01:10:47.023Z,100658.47
2019-04-07T01:13:22.147Z,100656.06
2019-04-07T01:15:57.199Z,100661.59
2019-04-07T01:18:35.549Z,100661.59
2019-04-07T01:21:10.653Z,100656.05
2019-04-07T01:23:45.631Z,100665.55
2019-04-07T01:26:20.650Z,100663.45
2019-04-07T01:28:55.650Z,100663.20
2019-04-07T01:31:30.656Z,100663.73
2019-04-07T01:34:05.920Z,100654.17
2019-04-07T01:36:41.314Z,100657.62
2019-04-07T01:39:16.870Z,100656.48
2019-04-07T01:42:07.942Z,100659.85
2019-04-07T01:45:11.523Z,100664.62
2019-04-07T01:48:06.098Z,100658.49
2019-04-07T01:50:58.179Z,100659.86
2019-04-07T01:53:53.192Z,100659.03
2019-04-07T01:56:50.090Z,100658.00
2019-04-07T01:59:44.346Z,100654.02
2019-04-07T02:02:45.506Z,100655.87
2019-04-07T02:05:58.664Z,100655.91
2019-04-07T02:08:46.374Z,100652.70
2019-04-07T02:11:49.583Z,100649.80
2019-04-07T02:14:40.947Z,100643.70
2019-04-07T02:17:50.657Z,100647.94
2019-04-07T02:21:14.313Z,100648.19
2019-04-07T02:24:10.219Z,100644.94
2019-04-07T02:27:02.886Z,100647.07
2019-04-07T02:30:14.759Z,100644.69
2019-04-07T02:33:08.511Z,100651.36
2019-04-07T02:36:16.039Z,100646.10
2019-04-07T02:38:50.438Z,100641.87
2019-04-07T02:41:35.094Z,100640.80
2019-04-07T02:44:31.991Z,100638.41
2019-04-07T02:47:18.695Z,100643.19
2019-04-07T02:50:10.766Z,100642.06
2019-04-07T02:52:58.041Z,100646.34
2019-04-07T02:55:52.587Z,100646.59
2019-04-07T02:59:04.736Z,100645.81
2019-04-07T03:01:53.121Z,100644.78
2019-04-07T03:04:46.088Z,100641.86
2019-04-07T03:07:43.118Z,100645.81
2019-04-07T03:10:37.107Z,100645.75
2019-04-07T03:13:46.514Z,100647.61
2019-04-07T03:16:31.013Z,100642.78
2019-04-07T03:19:15.151Z,100648.51
2019-04-07T03:22:18.265Z,100649.88
2019-04-07T03:25:18.484Z,100651.44
2019-04-07T03:28:10.301Z,100655.91
2019-04-07T03:31:14.746Z,100655.31
2019-04-07T03:34:18.457Z,100656.40
2019-04-07T03:37:25.635Z,100660.33
2019-04-07T03:40:11.629Z,100657.36
2019-04-07T03:43:23.952Z,100658.95
2019-04-07T03:46:07.954Z,100662.02
2019-04-07T03:48:48.221Z,100661.34
2019-04-07T03:51:54.497Z,100663.26
2019-04-07T03:54:50.935Z,100669.47
2019-04-07T03:58:03.689Z,100662.90
2019-04-07T04:01:37.126Z,100665.88
2019-04-07T04:04:30.030Z,100664.68
2019-04-07T04:07:31.304Z,100665.77
2019-04-07T04:10:09.867Z,100668.55
2019-04-07T04:13:02.302Z,100667.41
2019-04-07T04:16:06.229Z,100671.58
2019-04-07T04:18:42.614Z,100671.66
2019-04-07T04:21:17.847Z,100670.27
2019-04-07T04:23:53.090Z,100674.55
2019-04-07T04:26:29.162Z,100673.55
2019-04-07T04:29:05.783Z,100676.16
2019-04-07T04:31:43.423Z,100671.43
2019-04-07T04:34:19.175Z,100679.86
2019-04-07T04:36:54.569Z,100677.70
2019-04-07T04:39:29.705Z,100682.70
2019-04-07T04:42:05.478Z,100687.94
2019-04-07T04:44:41.018Z,100692.36
2019-04-07T04:47:18.999Z,100688.43
2019-04-07T04:49:56.190Z,100689.13
2019-04-07T04:52:31.924Z,100693.75
2019-04-07T04:55:07.414Z,100693.37
2019-04-07T04:57:42.626Z,100696.53
2019-04-07T05:00:20.239Z,100700.22
2019-04-07T05:02:56.041Z,100705.10
2019-04-07T05:05:31.121Z,100704.41
2019-04-07T05:08:06.838Z,100710.97
2019-04-07T05:10:41.993Z,100714.33
2019-04-07T05:13:17.041Z,100717.72
2019-04-07T05:15:52.197Z,100719.45
2019-04-07T05:18:27.744Z,100723.98
2019-04-07T05:21:03.130Z,100726.77
2019-04-07T05:23:38.566Z,100727.06
2019-04-07T05:26:13.740Z,100725.70
2019-04-07T05:28:50.418Z,100726.61
2019-04-07T05:31:25.860Z,100731.94
2019-04-07T05:34:01.793Z,100735.38
2019-04-07T05:36:36.976Z,100732.08
2019-04-07T05:39:12.763Z,100738.11
2019-04-07T05:41:48.341Z,100739.03
2019-04-07T05:44:24.382Z,100743.34
2019-04-07T05:47:03.570Z,100744.41
2019-04-07T05:49:38.921Z,100756.05
2019-04-07T05:52:14.951Z,100750.27
2019-04-07T05:54:52.437Z,100760.22
2019-04-07T05:57:30.873Z,100763.11
2019-04-07T06:00:06.573Z,100760.56
2019-04-07T06:02:42.824Z,100759.90
2019-04-07T06:05:18.738Z,100760.27
2019-04-07T06:07:54.503Z,100762.39
2019-04-07T06:10:30.006Z,100764.12
2019-04-07T06:13:06.094Z,100763.28
2019-04-07T06:15:41.219Z,100756.77
2019-04-07T06:18:16.357Z,100765.58
2019-04-07T06:20:52.030Z,100769.42
2019-04-07T06:23:29.493Z,100767.09
2019-04-07T06:26:08.898Z,100768.73
2019-04-07T06:28:41.283Z,100766.34
2019-04-07T06:31:17.377Z,100764.53
2019-04-07T06:33:55.038Z,100765.66
2019-04-07T06:36:29.666Z,100765.11
2019-04-07T06:39:08.257Z,100764.70
2019-04-07T06:41:44.351Z,100766.23
2019-04-07T06:44:22.173Z,100763.77
2019-04-07T06:47:16.724Z,100763.84
2019-04-07T06:50:18.988Z,100761.80
2019-04-07T06:53:17.325Z,100766.28
2019-04-07T06:56:03.881Z,100764.93
2019-04-07T06:58:56.552Z,100771.59
2019-04-07T07:01:39.714Z,100766.91
2019-04-07T07:04:35.556Z,100768.50
2019-04-07T07:07:20.683Z,100773.23
2019-04-07T07:10:09.474Z,100774.92
2019-04-07T07:13:07.518Z,100773.62
2019-04-07T07:15:56.265Z,100785.22
2019-04-07T07:18:40.332Z,100786.02
2019-04-07T07:21:46.812Z,100787.62
2019-04-07T07:24:25.101Z,100791.06
2019-04-07T07:26:58.723Z,100791.05
2019-04-07T07:29:35.281Z,100791.31
2019-04-07T07:32:10.354Z,100791.58
2019-04-07T07:34:48.680Z,100794.25
2019-04-07T07:37:26.150Z,100790.84
2019-04-07T07:40:02.253Z,100794.01
2019-04-07T07:42:37.953Z,100792.70
2019-04-07T07:45:14.026Z,100799.05
2019-04-07T07:47:53.229Z,100802.73
2019-04-07T07:50:26.645Z,100793.23
2019-04-07T07:53:02.584Z,100798.77
2019-04-07T07:55:38.574Z,100799.81
2019-04-07T07:58:14.015Z,100797.98
2019-04-07T08:00:50.610Z,100798.47
2019-04-07T08:03:27.267Z,100803.78
2019-04-07T08:06:06.366Z,100799.26
2019-04-07T08:08:39.632Z,100800.55
2019-04-07T08:11:17.521Z,100801.52
2019-04-07T08:13:53.595Z,100807.38
2019-04-07T08:16:31.071Z,100806.83
2019-04-07T08:19:09.259Z,100809.94
2019-04-07T08:21:45.419Z,100810.44
2019-04-07T08:24:21.834Z,100807.95
2019-04-07T08:26:58.857Z,100812.70
2019-04-07T08:29:37.143Z,100809.50
2019-04-07T08:32:12.154Z,100811.22
2019-04-07T08:34:47.346Z,100816.66
2019-04-07T08:37:23.342Z,100811.54
2019-04-07T08:39:59.387Z,100811.16
2019-04-07T08:42:34.720Z,100817.59
2019-04-07T08:45:10.093Z,100812.33
2019-04-07T08:47:47.355Z,100813.56
2019-04-07T08:50:27.720Z,100813.02
2019-04-07T08:53:02.127Z,100813.24
2019-04-07T08:55:37.276Z,100815.15
2019-04-07T08:58:23.603Z,100815.69
2019-04-07T09:00:53.067Z,100811.94
2019-04-07T09:03:30.554Z,100813.20
2019-04-07T09:06:06.266Z,100815.27
2019-04-07T09:08:41.645Z,100816.19
2019-04-07T09:11:21.659Z,100811.53
2019-04-07T09:13:56.937Z,100813.68
2019-04-07T09:16:39.484Z,100815.91
2019-04-07T09:19:36.808Z,100816.52
2019-04-07T09:22:29.820Z,100809.72
2019-04-07T09:25:39.992Z,100816.37
2019-04-07T09:28:23.997Z,100816.27
2019-04-07T09:31:23.313Z,100817.59
2019-04-07T09:34:30.260Z,100813.88
2019-04-07T09:37:31.026Z,100811.51
2019-04-07T09:40:32.862Z,100817.16
2019-04-07T09:43:19.937Z,100818.94
2019-04-07T09:46:16.608Z,100818.39
2019-04-07T09:49:13.529Z,100818.59
2019-04-07T09:52:03.470Z,100822.56
2019-04-07T09:55:01.257Z,100819.35
2019-04-07T09:57:46.145Z,100817.81
2019-04-07T10:00:45.441Z,100819.91
2019-04-07T10:03:46.378Z,100810.59
2019-04-07T10:06:32.351Z,100808.30
2019-04-07T10:09:25.675Z,100813.77
2019-04-07T10:12:38.120Z,100816.49
2019-04-07T10:15:32.845Z,100810.27
2019-04-07T10:18:34.054Z,100813.71
2019-04-07T10:21:28.621Z,100808.06
2019-04-07T10:24:32.540Z,100803.61
2019-04-07T10:27:37.092Z,100805.53
2019-04-07T10:30:27.688Z,100803.89
2019-04-07T10:33:38.106Z,100812.59
2019-04-07T10:36:42.355Z,100802.48
2019-04-07T10:39:29.426Z,100799.86
2019-04-07T10:42:35.913Z,100805.66
2019-04-07T10:45:29.643Z,100799.30
2019-04-07T10:48:24.858Z,100802.66
2019-04-07T10:51:42.807Z,100800.30
2019-04-07T10:54:47.266Z,100802.05
2019-04-07T10:57:39.972Z,100793.58
2019-04-07T11:00:33.430Z,100790.02
2019-04-07T11:03:30.031Z,100792.52
2019-04-07T11:06:24.758Z,100793.27
2019-04-07T11:09:21.154Z,100783.30
2019-04-07T11:12:23.564Z,100782.13
2019-04-07T11:15:20.316Z,100784.46
2019-04-07T11:18:19.056Z,100788.94
2019-04-07T11:21:06.498Z,100782.84
2019-04-07T11:23:55.511Z,100783.92
2019-04-07T11:26:48.592Z,100776.47
2019-04-07T11:29:49.647Z,100774.48
2019-04-07T11:32:51.253Z,100774.64
2019-04-07T11:35:36.925Z,100773.58
2019-04-07T11:38:49.487Z,100769.77
2019-04-07T11:41:31.673Z,100779.53
2019-04-07T11:44:13.866Z,100781.90
2019-04-07T11:47:14.237Z,100784.59
2019-04-07T11:50:08.190Z,100774.76
2019-04-07T11:52:49.383Z,100780.77
2019-04-07T11:55:35.526Z,100768.07
2019-04-07T11:58:45.162Z,100771.30
2019-04-07T12:01:39.476Z,100769.39
2019-04-07T12:04:48.993Z,100766.42
2019-04-07T12:07:41.364Z,100770.39
2019-04-07T12:10:53.504Z,100776.98
2019-04-07T12:13:42.943Z,100774.12
2019-04-07T12:16:35.000Z,100767.53
2019-04-07T12:19:32.218Z,100766.39
2019-04-07T12:22:18.296Z,100770.48
2019-04-07T12:25:13.138Z,100765.09
2019-04-07T12:28:15.869Z,100769.87
2019-04-07T12:31:00.363Z,100765.86
2019-04-07T12:36:52.991Z,100756.67
2019-04-07T12:39:36.100Z,100758.48
2019-04-07T12:42:20.327Z,100761.45
2019-04-07T12:45:13.457Z,100772.83
2019-04-07T12:48:19.708Z,100756.63
2019-04-07T12:51:17.590Z,100757.89
2019-04-07T12:54:11.788Z,100758.83
2019-04-07T12:57:06.178Z,100748.36
2019-04-07T12:59:56.116Z,100762.16
2019-04-07T13:02:53.241Z,100747.84
2019-04-07T13:05:36.646Z,100744.48
2019-04-07T13:08:32.142Z,100747.27
2019-04-07T13:11:25.456Z,100748.13
2019-04-07T13:14:15.174Z,100748.18
2019-04-07T13:17:01.701Z,100747.30
2019-04-07T13:19:55.262Z,100742.66
2019-04-07T13:23:01.940Z,100740.84
2019-04-07T13:25:43.946Z,100741.25
2019-04-07T13:28:41.783Z,100732.71
2019-04-07T13:31:25.769Z,100732.94
2019-04-07T13:34:20.025Z,100730.57
2019-04-07T13:37:18.813Z,100729.00
2019-04-07T13:40:12.973Z,100733.27
2019-04-07T13:43:09.950Z,100732.37
2019-04-07T13:45:55.831Z,100735.51
2019-04-07T13:48:53.677Z,100736.02
2019-04-07T13:54:56.915Z,100739.56
2019-04-07T13:57:44.062Z,100734.59
2019-04-07T14:00:42.945Z,100728.45
2019-04-07T14:03:41.726Z,100729.20
2019-04-07T14:06:46.463Z,100727.05
2019-04-07T14:09:34.149Z,100727.13
2019-04-07T14:12:23.780Z,100722.61
2019-04-07T14:15:21.619Z,100728.77
2019-04-07T14:18:11.302Z,100728.32
2019-04-07T14:20:56.203Z,100717.55
2019-04-07T14:24:02.533Z,100725.20
2019-04-07T14:27:04.378Z,100729.77
2019-04-07T14:29:55.917Z,100725.16
2019-04-07T14:32:54.670Z,100715.67
2019-04-07T14:35:39.058Z,100717.05
2019-04-07T14:38:45.563Z,100714.75
2019-04-07T14:41:31.259Z,100717.61
2019-04-07T14:44:25.815Z,100717.47
2019-04-07T14:47:21.901Z,100718.97
2019-04-07T14:50:19.009Z,100713.72
2019-04-07T14:53:13.252Z,100726.37
2019-04-07T14:55:58.253Z,100716.45
2019-04-07T14:58:53.769Z,100717.41
2019-04-07T15:01:46.899Z,100718.39
2019-04-07T15:04:29.129Z,100720.45
2019-04-07T15:07:16.135Z,100714.16
2019-04-07T15:09:59.828Z,100714.11
2019-04-07T15:12:42.525Z,100712.54
2019-04-07T15:15:17.639Z,100711.22
2019-04-07T15:17:53.078Z,100715.84
2019-04-07T15:20:28.285Z,100723.71
2019-04-07T15:23:07.441Z,100719.42
2019-04-07T15:25:45.784Z,100718.48
2019-04-07T15:28:19.740Z,100716.44
2019-04-07T15:30:55.611Z,100714.05
2019-04-07T15:33:33.620Z,100721.42
2019-04-07T15:36:09.126Z,100706.64
2019-04-07T15:38:46.433Z,100717.75
2019-04-07T15:41:22.236Z,100722.52
2019-04-07T15:43:58.501Z,100716.38
2019-04-07T15:46:35.458Z,100716.28
2019-04-07T15:49:12.671Z,100718.56
2019-04-07T15:51:48.783Z,100709.55
2019-04-07T15:54:25.407Z,100711.61
2019-04-07T15:57:00.793Z,100715.92
2019-04-07T15:59:35.943Z,100708.69
2019-04-07T16:02:12.158Z,100711.91
2019-04-07T16:04:48.091Z,100713.01
2019-04-07T16:07:23.717Z,100717.11
2019-04-07T16:09:59.742Z,100717.89
2019-04-07T16:12:44.911Z,100714.23
2019-04-07T16:15:18.128Z,100711.45
2019-04-07T16:17:53.243Z,100719.33
2019-04-07T16:20:32.417Z,100714.41
2019-04-07T16:23:05.503Z,100715.69
2019-04-07T16:25:41.836Z,100719.20
2019-04-07T16:28:18.817Z,100719.00
2019-04-07T16:30:54.267Z,100722.58
2019-04-07T16:33:34.103Z,100723.52
2019-04-07T16:36:08.662Z,100721.70
2019-04-07T16:38:44.354Z,100723.07
2019-04-07T16:41:20.023Z,100726.55
2019-04-07T16:43:55.098Z,100734.37
2019-04-07T16:46:30.485Z,100735.31
2019-04-07T16:49:11.506Z,100729.16
2019-04-07T16:51:47.318Z,100732.05
2019-04-07T16:54:23.387Z,100732.19
2019-04-07T16:56:59.403Z,100729.22
2019-04-07T16:59:40.733Z,100735.16
2019-04-07T17:02:15.637Z,100734.58
2019-04-07T17:04:51.521Z,100735.75
2019-04-07T17:07:26.651Z,100734.84
2019-04-07T17:10:03.493Z,100746.88
2019-04-07T17:12:40.616Z,100747.06
2019-04-07T17:15:15.790Z,100739.44
2019-04-07T17:17:52.477Z,100738.27
2019-04-07T17:20:33.375Z,100740.36
2019-04-07T17:23:11.160Z,100742.48
2019-04-07T17:25:47.086Z,100746.34
2019-04-07T17:28:23.824Z,100741.81
2019-04-07T17:30:59.923Z,100752.34
2019-04-07T17:33:37.918Z,100748.30
2019-04-07T17:36:17.576Z,100756.50
2019-04-07T17:39:16.389Z,100754.36
2019-04-07T17:41:52.005Z,100757.81
2019-04-07T17:44:35.050Z,100763.77
2019-04-07T17:47:35.460Z,100763.05
2019-04-07T17:50:31.525Z,100765.78
2019-04-07T17:53:28.577Z,100762.95
2019-04-07T17:56:22.231Z,100764.02
2019-04-07T17:59:17.137Z,100772.33
2019-04-07T18:02:17.401Z,100770.39
2019-04-07T18:05:10.620Z,100770.23
2019-04-07T18:08:13.375Z,100772.81
2019-04-07T18:11:17.657Z,100779.44
2019-04-07T18:14:03.700Z,100776.77
2019-04-07T18:17:04.695Z,100787.38
2019-04-07T18:20:14.077Z,100792.63
2019-04-07T18:23:13.729Z,100796.41
2019-04-07T18:25:54.476Z,100793.72
2019-04-07T18:28:34.913Z,100799.08
2019-04-07T18:31:24.519Z,100797.91
2019-04-07T18:34:27.279Z,100804.33
2019-04-07T18:37:19.162Z,100808.83
2019-04-07T18:40:11.995Z,100815.28
2019-04-07T18:43:06.324Z,100814.42
2019-04-07T18:45:52.642Z,100821.59
2019-04-07T18:48:46.271Z,100830.98
2019-04-07T18:51:37.121Z,100831.11
2019-04-07T18:54:26.887Z,100838.73
2019-04-07T18:57:21.725Z,100840.40
2019-04-07T19:00:19.953Z,100845.45
2019-04-07T19:03:18.506Z,100851.38
2019-04-07T19:06:22.022Z,100849.73
2019-04-07T19:09:11.166Z,100861.36
2019-04-07T19:12:13.504Z,100858.61
2019-04-07T19:15:23.700Z,100863.83
2019-04-07T19:18:27.251Z,100865.52
2019-04-07T19:21:31.925Z,100860.53
2019-04-07T19:24:47.568Z,100867.16
2019-04-07T19:27:46.489Z,100872.52
2019-04-07T19:30:43.636Z,100872.39
2019-04-07T19:33:42.148Z,100873.85
2019-04-07T19:36:44.410Z,100882.31
2019-04-07T19:39:26.357Z,100875.85
2019-04-07T19:42:21.881Z,100874.34
2019-04-07T19:45:05.878Z,100885.29
2019-04-07T19:48:10.078Z,100885.17
2019-04-07T19:51:01.923Z,100879.49
2019-04-07T19:54:13.556Z,100884.91
2019-04-07T19:57:06.597Z,100882.62
2019-04-07T19:59:52.770Z,100890.03
2019-04-07T20:03:07.665Z,100891.72
2019-04-07T20:06:12.937Z,100890.84
2019-04-07T20:09:13.034Z,100897.86
2019-04-07T20:12:22.048Z,100892.89
2019-04-07T20:15:17.620Z,100894.75
2019-04-07T20:18:08.524Z,100896.32
2019-04-07T20:20:57.506Z,100903.75
2019-04-07T20:23:50.116Z,100906.66
2019-04-07T20:26:56.726Z,100912.52
2019-04-07T20:29:47.771Z,100910.46
2019-04-07T20:32:41.011Z,100919.66
2019-04-07T20:35:35.006Z,100916.98
2019-04-07T20:38:28.947Z,100917.84
2019-04-07T20:41:33.760Z,100922.86
2019-04-07T20:44:33.908Z,100923.67
2019-04-07T20:47:36.171Z,100922.39
2019-04-07T20:50:22.524Z,100923.71
2019-04-07T20:53:28.297Z,100925.91
2019-04-07T20:56:14.400Z,100925.34
2019-04-07T20:59:08.483Z,100928.81
2019-04-07T21:02:05.545Z,100934.65
2019-04-07T21:04:45.215Z,100939.69
2019-04-07T21:07:47.073Z,100936.00
2019-04-07T21:10:50.708Z,100936.82
2019-04-07T21:13:43.044Z,100938.69
2019-04-07T21:16:38.005Z,100930.23
2019-04-07T21:19:23.296Z,100934.23
2019-04-07T21:22:16.961Z,100934.22
2019-04-07T21:25:09.798Z,100937.64
2019-04-07T21:27:49.254Z,100946.92
2019-04-07T21:30:47.056Z,100943.73
2019-04-07T21:33:44.232Z,100944.81
2019-04-07T21:36:41.721Z,100946.67
2019-04-07T21:39:39.704Z,100948.53
2019-04-07T21:42:27.395Z,100950.11
2019-04-07T21:45:32.543Z,100948.52
2019-04-07T21:48:23.886Z,100956.44
2019-04-07T21:51:33.258Z,100953.28
2019-04-07T21:54:30.731Z,100956.45
2019-04-07T21:57:26.971Z,100953.55
2019-04-07T22:00:21.169Z,100953.55
2019-04-07T22:03:22.564Z,100953.75
2019-04-07T22:06:14.892Z,100955.90
2019-04-07T22:08:54.279Z,100962.45
2019-04-07T22:11:30.453Z,100963.24
2019-04-07T22:14:07.685Z,100964.82
2019-04-07T22:16:43.868Z,100955.55
2019-04-07T22:19:19.078Z,100957.12
2019-04-07T22:21:56.573Z,100960.52
2019-04-07T22:24:35.861Z,100962.59
2019-04-07T22:27:09.544Z,100958.00
2019-04-07T22:29:46.967Z,100962.52
2019-04-07T22:32:24.088Z,100957.20
2019-04-07T22:35:02.644Z,100956.64
2019-04-07T22:37:38.089Z,100959.30
2019-04-07T22:40:19.380Z,100953.94
2019-04-07T22:42:54.600Z,100955.87
2019-04-07T22:45:31.139Z,100964.34
2019-04-07T22:48:08.226Z,100962.46
2019-04-07T22:50:43.683Z,100962.59
2019-04-07T22:53:22.442Z,100956.41
2019-04-07T22:55:57.470Z,100953.53
2019-04-07T22:58:34.366Z,100963.15
2019-04-07T23:01:09.498Z,100964.90
2019-04-07T23:03:46.342Z,100960.95
2019-04-07T23:06:21.529Z,100955.30
2019-04-07T23:08:57.349Z,100958.88
2019-04-07T23:11:32.978Z,100961.52
2019-04-07T23:14:09.454Z,100954.11
2019-04-07T23:16:44.752Z,100960.55
2019-04-07T23:19:19.866Z,100965.47
2019-04-07T23:21:58.764Z,100963.13
2019-04-07T23:24:34.955Z,100963.44
2019-04-07T23:27:10.417Z,100964.97
2019-04-07T23:29:46.384Z,100968.73
2019-04-07T23:32:22.058Z,100964.42
2019-04-07T23:34:57.648Z,100962.16
2019-04-07T23:37:33.661Z,100963.11
2019-04-07T23:40:10.655Z,100965.87
2019-04-07T23:42:46.676Z,100968.97
2019-04-07T23:45:25.338Z,100966.11
2019-04-07T23:48:00.484Z,100968.73
2019-04-07T23:50:39.575Z,100967.30
2019-04-07T23:54:09.448Z,100964.20
2019-04-07T23:56:47.563Z,100964.90
2019-04-07T23:59:22.928Z,100964.75
